ZLXY Airport Information

Runway Information
Runway 05 Length 9842 ft width 148 ft
Elevation 1562 ft Threshold 0 ft Heading 49
Runway 23 Length 9842 ft Width 148 ft
Elevation 1568 ft Threshold 0 ft Heading 229
Airport Frequencies
Type APP Name APP Frequency 119.6 MHZ
Type ATIS Name ATIS Frequency 127.45 MHZ
Type GND Name GND Frequency 121.8 MHZ
Type TWR Name TWR Frequency 124.3 MHZ
Airport Navaids
Type NDB Name Sanyuan Frequency 202 KHZ
Type VOR-DME Name Xianyang Frequency 115300 KHZ
Type NDB Name Yanzhuang Frequency 359 KHZ
Airport Weather Information & NOTAM
ADDS - METARS form results

(1754 UTC 17 November 2018)
Data provider http://aviationweather.gov/metar/data/
 
METAR text: ZLXY 171700Z 23002MPS 5000 BR NSC 04/01 Q1029 NOSIG
Conditions at: ZLXY (XIANYANG , CN) observed 1700 UTC 17 November 2018
Temperature: 4.0°C (39°F)
Dewpoint: 1.0°C (34°F) [RH = 81%]
Pressure (altimeter): 30.38 inches Hg (1029.0 mb)
Winds: from the SW (230 degrees) at 5 MPH (4 knots; 2.1 m/s)
Visibility: 3 miles ( 5 km)
Ceiling: at least 12,000 feet AGL
Clouds: sky clear below 12,000 feet AGL
Weather: BR  (mist)

Forecast for: ZLXY (XIANYANG , CN)
Text: TAF ZLXY 171504Z 1718/1818 24003MPS 3000 HZ NSC TX11/1807Z TN03/1723Z
Forecast period: 1800 UTC 17 November 2018 to 1800 UTC 18 November 2018
Forecast type: FROM: standard forecast or significant change
Winds: from the WSW (240 degrees) at 7 MPH (6 knots; 3.1 m/s)
Visibility: 1.86 miles (2.99 km)
Ceiling: unknown
Clouds: missing
Weather: HZ  (haze)